Pilot information for Dzhirgatal Airport

[ general | frequencies | runways | weather | notam | navaids | links ]

Caution: This page displays community-maintained data: information may be missing, incorrect, or out of date. Please confirm with an official source before making travel plans.

General information for Dzhirgatal Airport

Type: local airport(light traffic)
Scheduled airline service: no
Serves: Dzhirgatal, Region of Republican Subordination, Tajikistan
Latitude: 39.230000 | 39 13.799973 N | N39 13 47
Longitude: 71.214996 | 71 12.899780 E | E071 12 53

Radio communication frequencies for Dzhirgatal Airport

No communications frequencies known for Dzhirgatal Airport.

Members can add and update frequencies.

Runways at Dzhirgatal Airport

No runway information available for Dzhirgatal Airport.

Members can add and update runway information.

Aviation weather for Dzhirgatal Airport

Current conditions (METAR) for Dzhirgatal Airport

Closest report is Khudzhand Airport, 91.8 nm (170.0 km) NW. Retrieved 2014/11/01 00:30:

UTDL 010030Z 06004MPS 3700 BR SCT200 06/02 Q1019 NOSIG RMK QFE725/0967 88CLRD70

Forecast (TAF) for Dzhirgatal Airport

Closest forecast is Khudzhand Airport, 91.8 nm (170.0 km) NW. Retrieved 2014/09/23 16:06:

TAF UTDL 231450Z 2316/2404 VRB03MPS 9999 FEW060CB SCT100 
      TEMPO 2316/2401 23005MPS

Notices to Airmen (NOTAM) for Dzhirgatal Airport

We have no current NOTAMs for Dzhirgatal Airport. Please check with an official source to confirm.